Time;durP1;ratioP1;P1;durP2;ratioP2;P2;SDS_P1;SDS_P2;PMS_P1;PMS_P2;Temp;Humidity;BMP_temperature;BMP_pressure;BME280_temperature;BME280_humidity;BME280_pressure;Samples;Min_cycle;Max_cycle;Signal;HPM_P1;HPM_P2
2023/02/19 00:01:50;;;;;;;10.68;9.98;;;;;;;;;;4991220;28;20034;-54
2023/02/19 00:04:20;;;;;;;11.57;10.88;;;;;;;;;;4993299;28;20144;-55
2023/02/19 00:06:46;;;;;;;10.55;9.93;;;;;;;;;;4992514;28;20636;-52
2023/02/19 00:09:14;;;;;;;10.43;9.82;;;;;;;;;;4992919;28;20129;-54
2023/02/19 00:11:40;;;;;;;11.27;10.57;;;;;;;;;;4994191;28;20041;-55
2023/02/19 00:14:06;;;;;;;10.95;10.25;;;;;;;;;;4992630;28;20093;-53
2023/02/19 00:16:37;;;;;;;11.35;10.65;;;;;;;;;;4992996;28;20065;-54
2023/02/19 00:19:04;;;;;;;10.82;10.13;;;;;;;;;;4991395;28;20140;-54
2023/02/19 00:21:30;;;;;;;12.18;11.45;;;;;;;;;;4992041;28;20030;-54
2023/02/19 00:23:57;;;;;;;11.38;10.68;;;;;;;;;;4996890;28;20041;-54
2023/02/19 00:26:23;;;;;;;10.65;10.00;;;;;;;;;;4997428;28;20476;-55
2023/02/19 00:28:50;;;;;;;11.73;11.00;;;;;;;;;;4995860;28;20061;-54
2023/02/19 00:31:17;;;;;;;10.93;10.23;;;;;;;;;;4995131;28;20130;-55
2023/02/19 00:33:43;;;;;;;11.65;10.95;;;;;;;;;;4994624;28;20041;-54
2023/02/19 00:36:09;;;;;;;12.45;11.57;;;;;;;;;;4993846;28;20072;-54
2023/02/19 00:38:37;;;;;;;11.95;11.05;;;;;;;;;;4997408;28;20054;-53
2023/02/19 00:41:17;;;;;;;11.90;11.20;;;;;;;;;;4996224;28;20123;-53
2023/02/19 00:43:51;;;;;;;11.07;10.38;;;;;;;;;;4998457;28;20030;-54
2023/02/19 00:46:38;;;;;;;12.10;11.30;;;;;;;;;;4995104;28;20551;-55
2023/02/19 00:49:05;;;;;;;12.32;11.52;;;;;;;;;;4999155;28;20049;-54
2023/02/19 00:51:33;;;;;;;11.35;10.65;;;;;;;;;;4996949;28;20265;-53
2023/02/19 00:53:59;;;;;;;11.07;10.38;;;;;;;;;;4997885;28;20033;-54
2023/02/19 00:56:25;;;;;;;12.13;11.32;;;;;;;;;;4997138;28;20842;-55
2023/02/19 00:58:51;;;;;;;11.75;11.02;;;;;;;;;;4993917;28;20548;-55
2023/02/19 01:01:17;;;;;;;10.88;10.18;;;;;;;;;;4993563;28;20040;-53
2023/02/19 01:03:43;;;;;;;11.95;11.25;;;;;;;;;;4994221;28;20045;-54
2023/02/19 01:06:11;;;;;;;10.60;9.95;;;;;;;;;;4995237;28;20034;-54
2023/02/19 01:08:37;;;;;;;11.02;10.32;;;;;;;;;;4995355;28;20026;-53
2023/02/19 01:11:05;;;;;;;11.10;10.40;;;;;;;;;;4995500;28;20374;-53
2023/02/19 01:13:31;;;;;;;10.75;10.05;;;;;;;;;;4995833;28;20088;-54
2023/02/19 01:16:09;;;;;;;11.30;10.43;;;;;;;;;;4991941;28;20476;-54
2023/02/19 01:18:35;;;;;;;10.60;9.93;;;;;;;;;;4996358;28;20043;-54
2023/02/19 01:21:22;;;;;;;10.38;9.77;;;;;;;;;;4998857;28;20510;-55
2023/02/19 01:23:48;;;;;;;11.20;10.50;;;;;;;;;;4992212;28;20451;-54
2023/02/19 01:26:25;;;;;;;11.20;10.50;;;;;;;;;;4992873;28;20061;-54
2023/02/19 01:28:51;;;;;;;10.07;9.48;;;;;;;;;;4997330;28;20400;-55
2023/02/19 01:31:19;;;;;;;10.80;10.10;;;;;;;;;;4996760;28;20034;-53
2023/02/19 01:33:52;;;;;;;10.73;10.07;;;;;;;;;;4997325;28;20034;-52
2023/02/19 01:36:18;;;;;;;11.05;10.35;;;;;;;;;;4990967;28;20070;-52
2023/02/19 01:38:43;;;;;;;11.27;10.45;;;;;;;;;;4995881;28;20038;-54
2023/02/19 01:41:12;;;;;;;11.57;10.77;;;;;;;;;;4993205;28;20456;-55
2023/02/19 01:44:02;;;;;;;11.23;10.52;;;;;;;;;;4998427;28;20129;-54
2023/02/19 01:46:31;;;;;;;11.00;10.30;;;;;;;;;;4997344;28;20088;-55
2023/02/19 01:49:01;;;;;;;12.30;11.52;;;;;;;;;;4997890;28;20559;-53
2023/02/19 01:51:27;;;;;;;11.18;10.48;;;;;;;;;;4994105;28;20045;-54
2023/02/19 01:53:57;;;;;;;11.70;11.00;;;;;;;;;;4995129;28;20479;-55
2023/02/19 01:56:24;;;;;;;11.13;10.43;;;;;;;;;;4997072;28;20171;-54
2023/02/19 01:58:50;;;;;;;10.90;10.25;;;;;;;;;;4995747;28;20031;-52
2023/02/19 02:01:16;;;;;;;12.25;11.55;;;;;;;;;;4995016;28;20060;-55
2023/02/19 02:03:45;;;;;;;11.50;10.63;;;;;;;;;;4997837;28;20448;-54
2023/02/19 02:06:47;;;;;;;11.88;11.15;;;;;;;;;;4995071;28;20073;-51
2023/02/19 02:11:56;;;;;;;13.20;12.40;;;;;;;;;;4993203;28;19934;-55
2023/02/19 02:14:26;;;;;;;12.68;11.98;;;;;;;;;;4994949;28;20168;-55
2023/02/19 02:16:57;;;;;;;11.88;11.18;;;;;;;;;;4997331;28;20345;-54
2023/02/19 02:19:30;;;;;;;;;;;;;;;;;;4998009;28;20038;-53
2023/02/19 02:22:12;;;;;;;11.40;10.70;;;;;;;;;;4994833;28;19913;-55
2023/02/19 02:24:59;;;;;;;11.57;10.88;;;;;;;;;;4992829;28;20109;-55
2023/02/19 02:27:27;;;;;;;12.30;11.60;;;;;;;;;;4995313;28;20539;-54
2023/02/19 02:30:31;;;;;;;13.88;12.98;;;;;;;;;;4995652;28;20407;-53
2023/02/19 02:33:25;;;;;;;11.18;10.48;;;;;;;;;;4992148;28;20061;-54
2023/02/19 02:36:16;;;;;;;12.70;11.90;;;;;;;;;;4992200;28;20597;-55
2023/02/19 02:38:43;;;;;;;;;;;;;;;;;;4989948;28;20045;-51
2023/02/19 02:41:10;;;;;;;13.27;12.48;;;;;;;;;;4995772;28;19914;-54
2023/02/19 02:43:35;;;;;;;12.98;12.18;;;;;;;;;;4994023;28;20046;-51
2023/02/19 02:46:01;;;;;;;14.80;13.68;;;;;;;;;;4992004;28;20108;-54
2023/02/19 02:48:37;;;;;;;13.18;12.38;;;;;;;;;;4993101;28;20038;-54
2023/02/19 02:51:27;;;;;;;12.73;11.93;;;;;;;;;;4995529;28;20117;-53
2023/02/19 02:56:48;;;;;;;12.27;11.52;;;;;;;;;;4994940;28;20780;-51
2023/02/19 02:59:17;;;;;;;13.02;12.23;;;;;;;;;;4994725;28;20380;-55
2023/02/19 03:08:16;;;;;;;13.73;12.85;;;;;;;;;;4991549;28;20065;-55
2023/02/19 03:10:41;;;;;;;12.63;11.85;;;;;;;;;;4993049;28;20057;-53
2023/02/19 03:21:39;;;;;;;11.68;10.98;;;;;;;;;;4993688;28;20034;-55
2023/02/19 03:26:52;;;;;;;12.10;11.40;;;;;;;;;;4995470;28;20435;-52
2023/02/19 03:29:21;;;;;;;13.93;13.07;;;;;;;;;;4992820;28;20061;-55
2023/02/19 03:31:50;;;;;;;12.82;12.02;;;;;;;;;;4993667;28;20504;-55
2023/02/19 03:34:21;;;;;;;12.38;11.68;;;;;;;;;;4992529;28;20591;-53
2023/02/19 03:37:05;;;;;;;12.07;11.32;;;;;;;;;;4994070;28;20030;-55
2023/02/19 03:39:31;;;;;;;12.85;11.95;;;;;;;;;;4990720;28;20026;-53
2023/02/19 03:42:13;;;;;;;13.80;13.00;;;;;;;;;;4993486;28;20026;-53
2023/02/19 03:44:41;;;;;;;13.60;12.80;;;;;;;;;;4992246;28;20030;-53
2023/02/19 03:47:06;;;;;;;12.63;11.93;;;;;;;;;;4993347;28;20041;-55
2023/02/19 03:49:40;;;;;;;13.13;12.32;;;;;;;;;;4992234;28;20038;-54
2023/02/19 03:52:27;;;;;;;13.15;12.35;;;;;;;;;;4995510;28;20066;-54
2023/02/19 03:55:16;;;;;;;13.00;12.10;;;;;;;;;;4992491;28;20367;-54
2023/02/19 03:57:59;;;;;;;13.27;12.48;;;;;;;;;;5002157;28;20042;-54
2023/02/19 04:00:38;;;;;;;13.00;12.23;;;;;;;;;;5005849;28;20499;-52
2023/02/19 04:03:15;;;;;;;12.30;11.60;;;;;;;;;;4997671;28;20558;-55
2023/02/19 04:05:47;;;;;;;13.38;12.57;;;;;;;;;;4996614;28;20430;-55
2023/02/19 04:08:18;;;;;;;12.07;11.38;;;;;;;;;;4995702;28;20041;-55
2023/02/19 04:10:45;;;;;;;13.10;12.30;;;;;;;;;;4998022;28;20833;-55
2023/02/19 04:13:37;;;;;;;13.40;12.60;;;;;;;;;;4995709;28;20581;-55
2023/02/19 04:16:05;;;;;;;;;;;;;;;;;;4998657;28;20042;-54
2023/02/19 04:18:35;;;;;;;12.65;11.88;;;;;;;;;;4994754;28;20004;-54
2023/02/19 04:21:02;;;;;;;12.23;11.52;;;;;;;;;;4999150;28;20078;-54
2023/02/19 04:23:31;;;;;;;11.63;10.93;;;;;;;;;;4998622;28;20103;-55
2023/02/19 04:25:59;;;;;;;11.75;11.05;;;;;;;;;;4994267;28;20383;-53
2023/02/19 04:28:24;;;;;;;12.35;11.65;;;;;;;;;;4996041;28;20113;-55
2023/02/19 04:30:50;;;;;;;13.63;12.82;;;;;;;;;;4996627;28;20105;-54
2023/02/19 04:33:15;;;;;;;12.48;11.77;;;;;;;;;;4997313;28;20092;-53
2023/02/19 04:35:41;;;;;;;12.18;11.38;;;;;;;;;;4999685;28;20137;-55
2023/02/19 04:38:06;;;;;;;12.57;11.88;;;;;;;;;;4998072;28;20113;-54
2023/02/19 04:40:32;;;;;;;12.38;11.65;;;;;;;;;;4995069;28;20435;-54
2023/02/19 04:42:57;;;;;;;12.98;12.20;;;;;;;;;;4998395;28;20041;-54
2023/02/19 04:45:22;;;;;;;11.85;11.15;;;;;;;;;;4996411;28;20034;-54
2023/02/19 04:47:48;;;;;;;13.27;12.48;;;;;;;;;;4996943;28;20136;-53
2023/02/19 04:50:13;;;;;;;12.90;12.15;;;;;;;;;;4998423;28;20040;-52
2023/02/19 04:52:39;;;;;;;13.45;12.65;;;;;;;;;;4995598;28;20042;-54
2023/02/19 04:55:05;;;;;;;13.80;13.00;;;;;;;;;;4997902;28;20036;-54
2023/02/19 04:57:30;;;;;;;13.13;12.35;;;;;;;;;;4997634;28;20049;-54
2023/02/19 04:59:56;;;;;;;12.40;11.70;;;;;;;;;;4996889;28;20022;-55
2023/02/19 05:02:21;;;;;;;13.45;12.65;;;;;;;;;;4995088;28;20447;-55
2023/02/19 05:04:46;;;;;;;14.13;13.30;;;;;;;;;;4996535;28;20046;-55
2023/02/19 05:07:12;;;;;;;12.73;11.95;;;;;;;;;;4997993;28;20053;-55
2023/02/19 05:09:37;;;;;;;13.73;12.93;;;;;;;;;;5004074;28;20033;-54
2023/02/19 05:12:03;;;;;;;13.15;12.38;;;;;;;;;;4996104;28;20053;-55
2023/02/19 05:14:28;;;;;;;12.45;11.65;;;;;;;;;;4992402;28;20495;-54
2023/02/19 05:16:53;;;;;;;12.98;12.18;;;;;;;;;;4995292;28;20189;-55
2023/02/19 05:19:18;;;;;;;12.60;11.80;;;;;;;;;;4996996;28;20483;-54
2023/02/19 05:21:44;;;;;;;14.00;12.98;;;;;;;;;;4994643;28;20549;-55
2023/02/19 05:24:09;;;;;;;12.68;11.95;;;;;;;;;;4997075;28;20033;-54
2023/02/19 05:26:35;;;;;;;12.55;11.85;;;;;;;;;;4994741;28;20100;-55
2023/02/19 05:29:01;;;;;;;12.98;12.23;;;;;;;;;;4997207;28;20073;-53
2023/02/19 05:31:26;;;;;;;14.43;13.63;;;;;;;;;;4996274;28;20053;-56
2023/02/19 05:33:54;;;;;;;12.60;11.90;;;;;;;;;;4996278;28;20492;-54
2023/02/19 05:36:20;;;;;;;13.57;12.77;;;;;;;;;;4995098;28;20034;-56
2023/02/19 05:38:50;;;;;;;14.50;13.70;;;;;;;;;;4997134;28;20033;-56
2023/02/19 05:41:21;;;;;;;14.13;13.32;;;;;;;;;;4993677;28;20039;-54
2023/02/19 05:43:47;;;;;;;13.95;13.15;;;;;;;;;;4996558;28;20125;-55
2023/02/19 05:46:15;;;;;;;13.55;12.75;;;;;;;;;;4994453;28;20172;-56
2023/02/19 05:48:41;;;;;;;14.27;13.48;;;;;;;;;;4995089;28;20121;-55
2023/02/19 05:51:12;;;;;;;12.50;11.80;;;;;;;;;;4997019;28;20344;-54
2023/02/19 05:53:37;;;;;;;;;;;;;;;;;;4994999;28;20049;-55
2023/02/19 05:56:04;;;;;;;12.05;11.35;;;;;;;;;;4997243;28;19917;-56
2023/02/19 05:58:29;;;;;;;11.93;11.23;;;;;;;;;;4995544;28;20037;-55
2023/02/19 06:00:55;;;;;;;12.52;11.82;;;;;;;;;;4993541;28;20043;-56
2023/02/19 06:03:21;;;;;;;12.50;11.80;;;;;;;;;;4993715;28;20127;-56
2023/02/19 06:05:47;;;;;;;13.60;12.80;;;;;;;;;;4997574;28;20026;-55
2023/02/19 06:08:13;;;;;;;13.13;12.32;;;;;;;;;;4995356;28;20449;-56
2023/02/19 06:10:40;;;;;;;12.95;12.20;;;;;;;;;;4991286;28;20468;-54
2023/02/19 06:13:06;;;;;;;13.27;12.48;;;;;;;;;;4993245;28;20467;-57
2023/02/19 06:15:32;;;;;;;13.32;12.52;;;;;;;;;;4991282;28;20103;-57
2023/02/19 06:17:57;;;;;;;14.38;13.57;;;;;;;;;;4994155;28;20026;-57
2023/02/19 06:20:22;;;;;;;14.27;13.48;;;;;;;;;;4994532;28;20109;-57
2023/02/19 06:22:51;;;;;;;12.63;11.82;;;;;;;;;;4993260;28;20115;-57
2023/02/19 06:25:17;;;;;;;12.32;11.63;;;;;;;;;;4993611;28;20134;-57
2023/02/19 06:27:42;;;;;;;12.13;11.43;;;;;;;;;;4992013;28;20456;-55
2023/02/19 06:30:08;;;;;;;11.60;10.90;;;;;;;;;;4993761;28;20038;-56
2023/02/19 06:32:34;;;;;;;13.13;12.35;;;;;;;;;;4993044;28;20044;-57
2023/02/19 06:34:59;;;;;;;12.18;11.48;;;;;;;;;;4994855;28;20061;-57
2023/02/19 06:37:25;;;;;;;12.63;11.93;;;;;;;;;;4991020;28;20118;-57
2023/02/19 06:39:50;;;;;;;12.05;11.35;;;;;;;;;;4992383;28;20463;-57
2023/02/19 06:42:15;;;;;;;12.48;11.77;;;;;;;;;;4996539;28;20053;-57
2023/02/19 06:44:41;;;;;;;14.15;13.35;;;;;;;;;;4992962;28;20073;-57
2023/02/19 06:47:06;;;;;;;12.75;12.05;;;;;;;;;;4994779;28;20073;-58
2023/02/19 06:49:31;;;;;;;11.55;10.85;;;;;;;;;;4994529;28;20026;-57
2023/02/19 06:51:58;;;;;;;12.20;11.50;;;;;;;;;;4994901;28;20042;-64
2023/02/19 06:54:24;;;;;;;13.98;13.18;;;;;;;;;;4993340;28;20042;-64
2023/02/19 06:56:51;;;;;;;12.05;11.35;;;;;;;;;;4994459;28;20092;-63
2023/02/19 06:59:16;;;;;;;12.95;12.23;;;;;;;;;;4991188;28;20500;-64
2023/02/19 07:01:42;;;;;;;13.02;12.27;;;;;;;;;;4995913;28;20072;-63
2023/02/19 07:04:07;;;;;;;12.43;11.73;;;;;;;;;;4993878;28;20103;-63
2023/02/19 07:06:34;;;;;;;13.05;12.25;;;;;;;;;;4994360;28;20374;-63
2023/02/19 07:09:00;;;;;;;13.65;12.85;;;;;;;;;;4994444;28;20030;-64
2023/02/19 07:11:29;;;;;;;13.85;12.85;;;;;;;;;;4992244;28;20419;-67
2023/02/19 07:13:59;;;;;;;12.45;11.75;;;;;;;;;;4993471;28;20116;-66
2023/02/19 07:16:25;;;;;;;13.32;12.52;;;;;;;;;;4990378;28;20049;-67
2023/02/19 07:18:51;;;;;;;12.77;12.05;;;;;;;;;;4992671;28;20088;-68
2023/02/19 07:21:17;;;;;;;14.13;13.23;;;;;;;;;;4993292;28;20045;-67
2023/02/19 07:23:44;;;;;;;11.90;11.20;;;;;;;;;;4996689;28;20033;-66
2023/02/19 07:26:11;;;;;;;12.80;11.90;;;;;;;;;;4994738;28;20034;-67
2023/02/19 07:28:37;;;;;;;11.82;11.13;;;;;;;;;;4992800;28;20084;-67
2023/02/19 07:31:03;;;;;;;12.88;12.15;;;;;;;;;;4991821;28;20142;-67
2023/02/19 07:33:28;;;;;;;12.32;11.50;;;;;;;;;;4991053;28;20033;-67
2023/02/19 07:35:54;;;;;;;12.27;11.57;;;;;;;;;;4992419;28;20095;-66
2023/02/19 07:38:21;;;;;;;11.30;10.60;;;;;;;;;;4995033;28;20413;-65
2023/02/19 07:41:00;;;;;;;12.35;11.65;;;;;;;;;;4992904;28;20133;-66
2023/02/19 07:43:27;;;;;;;11.32;10.63;;;;;;;;;;4993098;28;20077;-68
2023/02/19 07:45:53;;;;;;;12.98;12.18;;;;;;;;;;4996873;28;20495;-66
2023/02/19 07:48:19;;;;;;;12.02;11.23;;;;;;;;;;4991216;28;20038;-67
2023/02/19 07:50:54;;;;;;;12.88;12.15;;;;;;;;;;4990174;28;20057;-67
2023/02/19 07:53:20;;;;;;;12.35;11.65;;;;;;;;;;4991972;28;20041;-67
2023/02/19 07:55:46;;;;;;;11.18;10.48;;;;;;;;;;4992828;28;20042;-67
2023/02/19 07:58:11;;;;;;;12.30;11.60;;;;;;;;;;4991250;28;20053;-67
2023/02/19 08:00:37;;;;;;;10.80;10.18;;;;;;;;;;4993721;28;20125;-67
2023/02/19 08:03:02;;;;;;;14.63;10.57;;;;;;;;;;4995356;28;20054;-67
2023/02/19 08:05:30;;;;;;;10.43;9.82;;;;;;;;;;4991590;28;20033;-67
2023/02/19 08:07:56;;;;;;;10.35;9.75;;;;;;;;;;4994033;28;20100;-67
2023/02/19 08:13:18;;;;;;;11.10;10.40;;;;;;;;;;4995679;28;20042;-64
2023/02/19 08:15:45;;;;;;;10.43;9.82;;;;;;;;;;4993911;28;20117;-64
2023/02/19 08:18:11;;;;;;;10.43;9.73;;;;;;;;;;4993096;28;20038;-65
2023/02/19 08:20:37;;;;;;;11.38;10.68;;;;;;;;;;4992763;28;20034;-65
2023/02/19 08:23:03;;;;;;;10.68;10.05;;;;;;;;;;4991393;28;20034;-65
2023/02/19 08:25:29;;;;;;;10.60;9.90;;;;;;;;;;4991465;28;20096;-63
2023/02/19 08:27:54;;;;;;;10.57;9.88;;;;;;;;;;4995067;28;20057;-65
2023/02/19 08:30:21;;;;;;;10.52;9.93;;;;;;;;;;4990310;28;20674;-65
2023/02/19 08:32:46;;;;;;;10.40;9.65;;;;;;;;;;4990215;28;20037;-65
2023/02/19 08:35:11;;;;;;;10.07;9.48;;;;;;;;;;4988505;28;20534;-64
2023/02/19 08:37:37;;;;;;;10.90;10.20;;;;;;;;;;4992535;28;20035;-64
2023/02/19 08:40:02;;;;;;;10.32;9.73;;;;;;;;;;4991758;28;20337;-66
2023/02/19 08:42:28;;;;;;;10.15;9.52;;;;;;;;;;4990873;28;20034;-65
2023/02/19 08:44:53;;;;;;;10.55;9.95;;;;;;;;;;4991391;28;20042;-63
2023/02/19 08:47:19;;;;;;;10.38;9.77;;;;;;;;;;4995654;28;20440;-65
2023/02/19 08:49:44;;;;;;;11.50;10.80;;;;;;;;;;4995439;28;20357;-64
2023/02/19 08:52:10;;;;;;;11.23;10.52;;;;;;;;;;4996534;28;20557;-65
2023/02/19 08:54:35;;;;;;;11.23;10.52;;;;;;;;;;4997217;28;20041;-64
2023/02/19 08:57:00;;;;;;;10.27;9.57;;;;;;;;;;4993947;28;20042;-64
2023/02/19 08:59:28;;;;;;;11.00;10.30;;;;;;;;;;4994915;28;20030;-65
2023/02/19 09:01:53;;;;;;;11.05;9.48;;;;;;;;;;4992145;28;20459;-63
2023/02/19 09:04:18;;;;;;;10.45;9.85;;;;;;;;;;4995912;28;20100;-64
2023/02/19 09:06:44;;;;;;;10.68;10.07;;;;;;;;;;4994196;28;20490;-63
2023/02/19 09:09:09;;;;;;;19.65;11.00;;;;;;;;;;4995614;28;20034;-63
2023/02/19 09:11:37;;;;;;;10.00;9.40;;;;;;;;;;4994625;28;20113;-64
2023/02/19 09:14:06;;;;;;;9.88;9.20;;;;;;;;;;4993224;28;20049;-63
2023/02/19 09:16:34;;;;;;;11.15;10.35;;;;;;;;;;4995048;28;20030;-65
2023/02/19 09:18:59;;;;;;;10.75;10.05;;;;;;;;;;4992367;28;20072;-63
2023/02/19 09:21:25;;;;;;;11.10;10.40;;;;;;;;;;4992681;28;20148;-63
2023/02/19 09:23:50;;;;;;;10.52;9.93;;;;;;;;;;4993809;28;20065;-64
2023/02/19 09:26:16;;;;;;;10.40;9.80;;;;;;;;;;4996301;28;20057;-63
2023/02/19 09:28:41;;;;;;;10.00;9.40;;;;;;;;;;4996375;28;20038;-63
2023/02/19 09:31:12;;;;;;;10.18;9.57;;;;;;;;;;4995677;28;20030;-63
2023/02/19 09:33:42;;;;;;;10.32;9.73;;;;;;;;;;4995147;28;20907;-63
2023/02/19 09:36:07;;;;;;;10.85;10.15;;;;;;;;;;4996048;28;20042;-64
2023/02/19 09:38:33;;;;;;;12.38;11.68;;;;;;;;;;4994699;28;20045;-63
2023/02/19 09:41:05;;;;;;;10.73;10.10;;;;;;;;;;4995834;28;20093;-63
2023/02/19 09:43:31;;;;;;;11.40;10.70;;;;;;;;;;4997023;28;20499;-64
2023/02/19 09:46:03;;;;;;;11.15;10.38;;;;;;;;;;4993582;28;20079;-63
2023/02/19 09:48:28;;;;;;;10.23;9.63;;;;;;;;;;4998197;28;20036;-63
2023/02/19 09:50:56;;;;;;;11.18;10.48;;;;;;;;;;4994895;28;20034;-64
2023/02/19 09:53:25;;;;;;;11.77;11.00;;;;;;;;;;4997513;28;20049;-63
2023/02/19 09:55:52;;;;;;;10.90;10.25;;;;;;;;;;4992782;28;20046;-63
2023/02/19 09:58:20;;;;;;;11.75;11.05;;;;;;;;;;4998102;28;20042;-63
2023/02/19 10:00:48;;;;;;;11.10;10.40;;;;;;;;;;4997892;28;20124;-64
2023/02/19 10:03:34;;;;;;;11.95;11.15;;;;;;;;;;4994023;28;20460;-64
2023/02/19 10:06:03;;;;;;;10.27;9.68;;;;;;;;;;4990437;28;20030;-63
2023/02/19 10:08:32;;;;;;;10.65;10.05;;;;;;;;;;4994480;28;20038;-64
2023/02/19 10:10:58;;;;;;;11.45;10.75;;;;;;;;;;4995985;28;20038;-63
2023/02/19 10:13:34;;;;;;;11.38;10.68;;;;;;;;;;4993179;28;20092;-63
2023/02/19 10:16:03;;;;;;;10.60;9.90;;;;;;;;;;4995001;28;20054;-63
2023/02/19 10:18:41;;;;;;;11.20;10.50;;;;;;;;;;4994674;28;20041;-60
2023/02/19 10:21:09;;;;;;;17.70;11.43;;;;;;;;;;5002169;28;20411;-61
2023/02/19 10:23:35;;;;;;;10.93;9.90;;;;;;;;;;4994317;28;20535;-62
2023/02/19 10:26:00;;;;;;;11.15;10.45;;;;;;;;;;4994018;28;20096;-62
2023/02/19 10:28:32;;;;;;;10.75;10.05;;;;;;;;;;4998356;28;20137;-62
2023/02/19 10:31:00;;;;;;;10.50;9.90;;;;;;;;;;4994481;28;20677;-61
2023/02/19 10:33:26;;;;;;;12.40;11.45;;;;;;;;;;4993245;28;20077;-63
2023/02/19 10:35:58;;;;;;;11.15;10.45;;;;;;;;;;4993090;28;20038;-62
2023/02/19 10:38:32;;;;;;;10.32;9.73;;;;;;;;;;4991609;28;20034;-62
2023/02/19 10:41:03;;;;;;;10.02;9.43;;;;;;;;;;4988731;28;20041;-63
2023/02/19 10:43:32;;;;;;;;;;;;;;;;;;4993747;28;20073;-62
2023/02/19 10:46:01;;;;;;;10.55;9.95;;;;;;;;;;4990372;28;21419;-63
2023/02/19 10:48:33;;;;;;;11.43;10.52;;;;;;;;;;4993883;28;20061;-62
2023/02/19 10:51:03;;;;;;;12.82;11.15;;;;;;;;;;4991258;28;20079;-67
2023/02/19 10:53:47;;;;;;;11.20;10.50;;;;;;;;;;4990318;28;20045;-64
2023/02/19 10:56:21;;;;;;;10.73;10.07;;;;;;;;;;4987516;28;20137;-64
2023/02/19 10:58:46;;;;;;;10.50;9.90;;;;;;;;;;4994889;28;20096;-64
2023/02/19 11:01:20;;;;;;;10.75;9.98;;;;;;;;;;4991004;28;20041;-65
2023/02/19 11:03:48;;;;;;;10.38;9.68;;;;;;;;;;4988968;28;20061;-65
2023/02/19 11:06:16;;;;;;;12.57;11.38;;;;;;;;;;4993918;28;20044;-64
2023/02/19 11:08:56;;;;;;;10.68;9.98;;;;;;;;;;4992986;28;20680;-65
2023/02/19 11:11:31;;;;;;;10.32;9.73;;;;;;;;;;4995657;28;20160;-64
2023/02/19 11:13:59;;;;;;;11.80;11.10;;;;;;;;;;4995469;28;20026;-63
2023/02/19 11:16:41;;;;;;;10.98;10.27;;;;;;;;;;4993472;28;20041;-63
2023/02/19 11:19:23;;;;;;;9.70;9.10;;;;;;;;;;4992528;28;20047;-63
2023/02/19 11:21:49;;;;;;;10.95;10.15;;;;;;;;;;4991433;28;20104;-63
2023/02/19 11:24:40;;;;;;;10.07;9.45;;;;;;;;;;4991710;28;20034;-64
2023/02/19 11:27:23;;;;;;;10.43;9.73;;;;;;;;;;4990591;28;20049;-64
2023/02/19 11:29:49;;;;;;;10.25;9.65;;;;;;;;;;4993558;28;20030;-64
2023/02/19 11:32:26;;;;;;;11.05;10.35;;;;;;;;;;4996148;28;20668;-63
2023/02/19 11:35:13;;;;;;;11.45;10.75;;;;;;;;;;4991650;28;20034;-64
2023/02/19 11:37:58;;;;;;;11.52;10.82;;;;;;;;;;4991571;28;20121;-64
2023/02/19 11:41:09;;;;;;;11.40;10.70;;;;;;;;;;4992896;28;20099;-64
2023/02/19 11:44:01;;;;;;;10.33;9.73;;;;;;;;;;4994872;28;20122;-65
2023/02/19 11:46:55;;;;;;;12.15;11.35;;;;;;;;;;4994405;28;20495;-65
2023/02/19 11:49:47;;;;;;;11.55;10.85;;;;;;;;;;4993106;28;20364;-64
2023/02/19 11:52:22;;;;;;;10.98;10.27;;;;;;;;;;4995173;28;20448;-64
2023/02/19 11:55:33;;;;;;;11.52;10.82;;;;;;;;;;4994946;28;20033;-65
2023/02/19 11:58:10;;;;;;;12.52;11.73;;;;;;;;;;4992517;28;20025;-64
2023/02/19 12:00:55;;;;;;;11.98;11.27;;;;;;;;;;4991378;28;20823;-63
2023/02/19 12:03:20;;;;;;;12.38;11.68;;;;;;;;;;4994295;28;20029;-64
2023/02/19 12:05:54;;;;;;;11.57;10.88;;;;;;;;;;4993452;28;20042;-64
2023/02/19 12:08:51;;;;;;;11.95;11.25;;;;;;;;;;4991736;28;20030;-63
2023/02/19 12:11:48;;;;;;;11.77;11.07;;;;;;;;;;4995500;28;20053;-64
2023/02/19 12:14:42;;;;;;;11.73;11.02;;;;;;;;;;4993913;28;20105;-64
2023/02/19 12:17:45;;;;;;;11.68;10.98;;;;;;;;;;4991123;28;20957;-63
2023/02/19 12:20:25;;;;;;;11.23;10.32;;;;;;;;;;4995307;28;20042;-63
2023/02/19 12:23:08;;;;;;;10.95;10.25;;;;;;;;;;4997001;28;20687;-64
2023/02/19 12:25:56;;;;;;;11.90;11.20;;;;;;;;;;4997082;28;20499;-63
2023/02/19 12:28:34;;;;;;;11.38;10.68;;;;;;;;;;4994768;28;20037;-63
2023/02/19 12:31:14;;;;;;;10.85;10.05;;;;;;;;;;4993042;28;20414;-65
2023/02/19 12:34:00;;;;;;;11.38;10.68;;;;;;;;;;4998296;28;20352;-63
2023/02/19 12:37:06;;;;;;;11.90;11.20;;;;;;;;;;4996757;28;20050;-63
2023/02/19 12:39:58;;;;;;;11.52;10.82;;;;;;;;;;4954445;28;20042;-64
2023/02/19 12:42:29;;;;;;;10.88;10.18;;;;;;;;;;4994830;28;20145;-64
2023/02/19 12:45:01;;;;;;;13.48;12.65;;;;;;;;;;4996160;28;20543;-64
2023/02/19 12:47:40;;;;;;;14.10;13.10;;;;;;;;;;4998205;28;20038;-64
2023/02/19 12:50:19;;;;;;;13.63;12.73;;;;;;;;;;4998487;28;20038;-64
2023/02/19 12:52:49;;;;;;;14.55;13.63;;;;;;;;;;4998740;28;20072;-64
2023/02/19 12:55:28;;;;;;;12.15;11.43;;;;;;;;;;4996497;28;20534;-64
2023/02/19 12:57:55;;;;;;;14.07;13.27;;;;;;;;;;4997321;28;20041;-65
2023/02/19 13:00:38;;;;;;;14.20;13.30;;;;;;;;;;4996725;28;20410;-63
2023/02/19 13:03:24;;;;;;;13.10;12.30;;;;;;;;;;4994990;28;20072;-64
2023/02/19 13:06:03;;;;;;;13.80;13.00;;;;;;;;;;4992806;28;20267;-64
2023/02/19 13:08:47;;;;;;;12.63;11.93;;;;;;;;;;4996166;28;20577;-63
2023/02/19 13:11:18;;;;;;;13.05;12.25;;;;;;;;;;4995236;28;20702;-63
2023/02/19 13:13:49;;;;;;;13.55;12.48;;;;;;;;;;5003169;28;20034;-64
2023/02/19 13:16:18;;;;;;;13.98;13.18;;;;;;;;;;4997472;28;20523;-65
2023/02/19 13:18:45;;;;;;;12.55;11.85;;;;;;;;;;4997566;28;20606;-64
2023/02/19 13:23:57;;;;;;;11.05;10.35;;;;;;;;;;4998596;28;20034;-64
2023/02/19 13:24:05;;;;;;;11.95;11.25;;;;;;;;;;4997850;28;20069;-64
2023/02/19 13:27:19;;;;;;;10.90;10.10;;;;;;;;;;4997652;28;20105;-64
2023/02/19 13:30:09;;;;;;;10.60;9.98;;;;;;;;;;4972859;28;20120;-64
2023/02/19 13:32:49;;;;;;;11.00;10.32;;;;;;;;;;4995059;28;20109;-63
2023/02/19 13:35:23;;;;;;;10.27;9.68;;;;;;;;;;4996723;28;20399;-63
2023/02/19 13:37:50;;;;;;;10.38;9.77;;;;;;;;;;4998811;28;20052;-63
2023/02/19 13:40:33;;;;;;;11.48;10.68;;;;;;;;;;4995575;28;20578;-63
2023/02/19 13:43:02;;;;;;;12.05;11.35;;;;;;;;;;4995356;28;20048;-64
2023/02/19 13:45:38;;;;;;;10.90;10.25;;;;;;;;;;4998921;28;20129;-63
2023/02/19 13:48:23;;;;;;;10.52;9.93;;;;;;;;;;4995480;28;20069;-63
2023/02/19 13:50:50;;;;;;;11.13;10.43;;;;;;;;;;5004954;28;20034;-64
2023/02/19 13:53:44;;;;;;;10.43;9.82;;;;;;;;;;4995155;28;20038;-64
2023/02/19 13:56:28;;;;;;;11.13;10.43;;;;;;;;;;4977135;28;20617;-64
2023/02/19 13:59:23;;;;;;;11.35;10.65;;;;;;;;;;4995163;28;20049;-64
2023/02/19 14:01:51;;;;;;;11.75;10.85;;;;;;;;;;4994815;28;20030;-64
2023/02/19 14:04:50;;;;;;;11.20;10.50;;;;;;;;;;4995539;28;20103;-64
2023/02/19 14:07:15;;;;;;;13.52;12.68;;;;;;;;;;4992771;28;20050;-64
2023/02/19 14:09:43;;;;;;;12.00;11.20;;;;;;;;;;4996737;28;20049;-64
2023/02/19 14:12:09;;;;;;;11.57;10.88;;;;;;;;;;4995085;28;20031;-65
2023/02/19 14:14:34;;;;;;;12.70;11.90;;;;;;;;;;4995937;28;20501;-64
2023/02/19 14:17:09;;;;;;;11.73;10.93;;;;;;;;;;4998603;28;20547;-64
2023/02/19 14:19:40;;;;;;;11.82;11.13;;;;;;;;;;4996508;28;20515;-64
2023/02/19 14:22:43;;;;;;;13.32;10.95;;;;;;;;;;4993765;28;20041;-64
2023/02/19 14:25:26;;;;;;;11.70;11.00;;;;;;;;;;4992781;28;20431;-64
2023/02/19 14:27:53;;;;;;;13.02;11.82;;;;;;;;;;4995132;28;20029;-64
2023/02/19 14:30:21;;;;;;;11.82;11.13;;;;;;;;;;4994511;28;20038;-64
2023/02/19 14:32:47;;;;;;;12.43;11.73;;;;;;;;;;4994428;28;20037;-64
2023/02/19 14:35:18;;;;;;;11.82;11.13;;;;;;;;;;4994487;28;20415;-64
2023/02/19 14:37:45;;;;;;;11.90;11.20;;;;;;;;;;4995568;28;20042;-64
2023/02/19 14:40:19;;;;;;;11.02;10.32;;;;;;;;;;4993610;28;20627;-65
2023/02/19 14:42:46;;;;;;;12.18;11.38;;;;;;;;;;4992628;28;20042;-64
2023/02/19 14:45:14;;;;;;;10.93;10.23;;;;;;;;;;4991637;28;20049;-64
2023/02/19 14:47:42;;;;;;;10.68;10.07;;;;;;;;;;5002329;28;20038;-64
2023/02/19 14:50:14;;;;;;;10.73;10.02;;;;;;;;;;4994046;28;20077;-64
2023/02/19 14:52:45;;;;;;;10.45;9.75;;;;;;;;;;4993430;28;20162;-64
2023/02/19 14:55:25;;;;;;;10.57;9.98;;;;;;;;;;4995118;28;20121;-65
2023/02/19 14:57:53;;;;;;;10.32;9.73;;;;;;;;;;4996543;28;20483;-66
2023/02/19 15:00:36;;;;;;;11.43;10.65;;;;;;;;;;4981239;28;20034;-65
2023/02/19 15:03:02;;;;;;;10.48;9.80;;;;;;;;;;4994297;28;20102;-65
2023/02/19 15:05:31;;;;;;;11.27;10.57;;;;;;;;;;4995791;28;20038;-64
2023/02/19 15:08:00;;;;;;;10.38;9.77;;;;;;;;;;4993380;28;20030;-64
2023/02/19 15:10:32;;;;;;;11.57;10.77;;;;;;;;;;4996587;28;20045;-64
2023/02/19 15:13:05;;;;;;;10.35;9.75;;;;;;;;;;4993185;28;20034;-64